sensor_id;sensor_type;location;lat;lon;timestamp;P1;durP1;ratioP1;P2;durP2;ratioP2
14235;SDS011;7202;50.718;7.072;2023-04-15T00:01:14;3.88;;;2.05;;
14235;SDS011;7202;50.718;7.072;2023-04-15T00:03:45;7.47;;;2.40;;
14235;SDS011;7202;50.718;7.072;2023-04-15T00:06:16;3.65;;;1.98;;
14235;SDS011;7202;50.718;7.072;2023-04-15T00:08:45;3.67;;;1.90;;
14235;SDS011;7202;50.718;7.072;2023-04-15T00:11:16;3.15;;;2.20;;
14235;SDS011;7202;50.718;7.072;2023-04-15T00:13:45;4.25;;;1.88;;
14235;SDS011;7202;50.718;7.072;2023-04-15T00:16:16;5.18;;;2.10;;
14235;SDS011;7202;50.718;7.072;2023-04-15T00:18:44;3.95;;;1.83;;
14235;SDS011;7202;50.718;7.072;2023-04-15T00:21:13;2.67;;;1.80;;
14235;SDS011;7202;50.718;7.072;2023-04-15T00:23:43;2.50;;;1.52;;
14235;SDS011;7202;50.718;7.072;2023-04-15T00:26:15;5.20;;;2.17;;
14235;SDS011;7202;50.718;7.072;2023-04-15T00:28:46;2.53;;;1.80;;
14235;SDS011;7202;50.718;7.072;2023-04-15T00:31:15;3.90;;;1.85;;
14235;SDS011;7202;50.718;7.072;2023-04-15T00:33:45;2.97;;;1.77;;
14235;SDS011;7202;50.718;7.072;2023-04-15T00:36:14;4.88;;;2.10;;
14235;SDS011;7202;50.718;7.072;2023-04-15T00:38:44;3.03;;;1.80;;
14235;SDS011;7202;50.718;7.072;2023-04-15T00:41:14;4.20;;;2.17;;
14235;SDS011;7202;50.718;7.072;2023-04-15T00:43:42;4.57;;;2.33;;
14235;SDS011;7202;50.718;7.072;2023-04-15T00:46:11;7.45;;;2.33;;
14235;SDS011;7202;50.718;7.072;2023-04-15T00:48:42;6.45;;;2.45;;
14235;SDS011;7202;50.718;7.072;2023-04-15T00:51:11;4.90;;;2.25;;
14235;SDS011;7202;50.718;7.072;2023-04-15T00:53:40;3.53;;;2.10;;
14235;SDS011;7202;50.718;7.072;2023-04-15T00:56:10;3.58;;;2.10;;
14235;SDS011;7202;50.718;7.072;2023-04-15T00:58:40;4.57;;;2.13;;
14235;SDS011;7202;50.718;7.072;2023-04-15T01:01:10;3.83;;;2.25;;
14235;SDS011;7202;50.718;7.072;2023-04-15T01:03:39;4.53;;;2.58;;
14235;SDS011;7202;50.718;7.072;2023-04-15T01:06:08;8.57;;;2.42;;
14235;SDS011;7202;50.718;7.072;2023-04-15T01:08:37;4.68;;;2.33;;
14235;SDS011;7202;50.718;7.072;2023-04-15T01:11:06;4.47;;;2.00;;
14235;SDS011;7202;50.718;7.072;2023-04-15T01:13:37;4.18;;;2.17;;
14235;SDS011;7202;50.718;7.072;2023-04-15T01:16:06;6.07;;;2.35;;
14235;SDS011;7202;50.718;7.072;2023-04-15T01:18:36;5.40;;;2.10;;
14235;SDS011;7202;50.718;7.072;2023-04-15T01:21:05;3.88;;;2.08;;
14235;SDS011;7202;50.718;7.072;2023-04-15T01:23:34;3.15;;;1.98;;
14235;SDS011;7202;50.718;7.072;2023-04-15T01:26:06;4.82;;;2.17;;
14235;SDS011;7202;50.718;7.072;2023-04-15T01:28:35;6.15;;;2.38;;
14235;SDS011;7202;50.718;7.072;2023-04-15T01:31:05;2.75;;;1.92;;
14235;SDS011;7202;50.718;7.072;2023-04-15T01:33:36;4.40;;;2.25;;
14235;SDS011;7202;50.718;7.072;2023-04-15T01:36:06;3.75;;;1.98;;
14235;SDS011;7202;50.718;7.072;2023-04-15T01:38:36;6.70;;;2.45;;
14235;SDS011;7202;50.718;7.072;2023-04-15T01:41:06;2.42;;;1.75;;
14235;SDS011;7202;50.718;7.072;2023-04-15T01:43:35;3.80;;;2.22;;
14235;SDS011;7202;50.718;7.072;2023-04-15T01:46:04;3.67;;;2.10;;
14235;SDS011;7202;50.718;7.072;2023-04-15T01:48:33;5.40;;;2.35;;
14235;SDS011;7202;50.718;7.072;2023-04-15T01:51:02;5.32;;;2.50;;
14235;SDS011;7202;50.718;7.072;2023-04-15T01:53:31;4.18;;;2.30;;
14235;SDS011;7202;50.718;7.072;2023-04-15T01:56:01;5.00;;;2.17;;
14235;SDS011;7202;50.718;7.072;2023-04-15T01:58:31;3.85;;;2.25;;
14235;SDS011;7202;50.718;7.072;2023-04-15T02:01:00;3.30;;;2.22;;
14235;SDS011;7202;50.718;7.072;2023-04-15T02:03:31;3.45;;;1.77;;
14235;SDS011;7202;50.718;7.072;2023-04-15T02:05:59;3.55;;;1.80;;
14235;SDS011;7202;50.718;7.072;2023-04-15T02:08:28;3.40;;;1.95;;
14235;SDS011;7202;50.718;7.072;2023-04-15T02:10:57;3.35;;;1.80;;
14235;SDS011;7202;50.718;7.072;2023-04-15T02:13:27;3.38;;;1.67;;
14235;SDS011;7202;50.718;7.072;2023-04-15T02:15:58;3.20;;;1.70;;
14235;SDS011;7202;50.718;7.072;2023-04-15T02:18:27;3.17;;;1.80;;
14235;SDS011;7202;50.718;7.072;2023-04-15T02:20:57;2.70;;;1.83;;
14235;SDS011;7202;50.718;7.072;2023-04-15T02:23:26;3.90;;;2.20;;
14235;SDS011;7202;50.718;7.072;2023-04-15T02:25:55;2.15;;;1.55;;
14235;SDS011;7202;50.718;7.072;2023-04-15T02:28:24;5.20;;;2.05;;
14235;SDS011;7202;50.718;7.072;2023-04-15T02:30:53;4.38;;;2.00;;
14235;SDS011;7202;50.718;7.072;2023-04-15T02:33:26;4.47;;;1.90;;
14235;SDS011;7202;50.718;7.072;2023-04-15T02:35:56;6.18;;;1.77;;
14235;SDS011;7202;50.718;7.072;2023-04-15T02:38:25;3.03;;;1.42;;
14235;SDS011;7202;50.718;7.072;2023-04-15T02:40:54;7.00;;;1.85;;
14235;SDS011;7202;50.718;7.072;2023-04-15T02:43:23;4.07;;;1.83;;
14235;SDS011;7202;50.718;7.072;2023-04-15T02:45:52;3.40;;;2.10;;
14235;SDS011;7202;50.718;7.072;2023-04-15T02:48:22;4.03;;;1.90;;
14235;SDS011;7202;50.718;7.072;2023-04-15T02:50:52;2.60;;;1.70;;
14235;SDS011;7202;50.718;7.072;2023-04-15T02:53:20;3.80;;;1.70;;
14235;SDS011;7202;50.718;7.072;2023-04-15T02:55:49;2.38;;;1.58;;
14235;SDS011;7202;50.718;7.072;2023-04-15T02:58:17;4.25;;;1.75;;
14235;SDS011;7202;50.718;7.072;2023-04-15T03:00:46;5.10;;;1.90;;
14235;SDS011;7202;50.718;7.072;2023-04-15T03:03:17;3.28;;;1.67;;
14235;SDS011;7202;50.718;7.072;2023-04-15T03:05:46;3.88;;;1.60;;
14235;SDS011;7202;50.718;7.072;2023-04-15T03:08:17;2.42;;;1.92;;
14235;SDS011;7202;50.718;7.072;2023-04-15T03:10:47;3.08;;;1.70;;
14235;SDS011;7202;50.718;7.072;2023-04-15T03:13:18;4.90;;;2.08;;
14235;SDS011;7202;50.718;7.072;2023-04-15T03:15:47;4.13;;;1.90;;
14235;SDS011;7202;50.718;7.072;2023-04-15T03:18:16;5.85;;;1.90;;
14235;SDS011;7202;50.718;7.072;2023-04-15T03:20:44;2.50;;;1.90;;
14235;SDS011;7202;50.718;7.072;2023-04-15T03:23:13;5.22;;;1.90;;
14235;SDS011;7202;50.718;7.072;2023-04-15T03:25:44;3.30;;;1.80;;
14235;SDS011;7202;50.718;7.072;2023-04-15T03:28:14;3.42;;;1.75;;
14235;SDS011;7202;50.718;7.072;2023-04-15T03:30:42;2.65;;;1.65;;
14235;SDS011;7202;50.718;7.072;2023-04-15T03:33:11;4.72;;;1.88;;
14235;SDS011;7202;50.718;7.072;2023-04-15T03:35:40;4.07;;;2.10;;
14235;SDS011;7202;50.718;7.072;2023-04-15T03:38:09;4.68;;;2.22;;
14235;SDS011;7202;50.718;7.072;2023-04-15T03:40:40;2.60;;;1.90;;
14235;SDS011;7202;50.718;7.072;2023-04-15T03:43:10;4.63;;;2.50;;
14235;SDS011;7202;50.718;7.072;2023-04-15T03:45:39;4.30;;;1.85;;
14235;SDS011;7202;50.718;7.072;2023-04-15T03:48:07;9.77;;;2.42;;
14235;SDS011;7202;50.718;7.072;2023-04-15T03:50:44;4.03;;;2.00;;
14235;SDS011;7202;50.718;7.072;2023-04-15T03:53:13;5.55;;;2.30;;
14235;SDS011;7202;50.718;7.072;2023-04-15T03:55:41;3.08;;;2.25;;
14235;SDS011;7202;50.718;7.072;2023-04-15T03:58:12;5.15;;;2.30;;
14235;SDS011;7202;50.718;7.072;2023-04-15T04:00:40;4.28;;;2.03;;
14235;SDS011;7202;50.718;7.072;2023-04-15T04:03:09;5.78;;;2.17;;
14235;SDS011;7202;50.718;7.072;2023-04-15T04:05:38;3.58;;;2.17;;
14235;SDS011;7202;50.718;7.072;2023-04-15T04:08:08;2.67;;;1.98;;
14235;SDS011;7202;50.718;7.072;2023-04-15T04:10:39;3.78;;;2.17;;
14235;SDS011;7202;50.718;7.072;2023-04-15T04:13:08;5.45;;;2.00;;
14235;SDS011;7202;50.718;7.072;2023-04-15T04:15:38;4.45;;;2.67;;
14235;SDS011;7202;50.718;7.072;2023-04-15T04:18:07;3.72;;;2.13;;
14235;SDS011;7202;50.718;7.072;2023-04-15T04:20:35;3.88;;;2.35;;
14235;SDS011;7202;50.718;7.072;2023-04-15T04:23:04;3.22;;;1.83;;
14235;SDS011;7202;50.718;7.072;2023-04-15T04:25:33;4.53;;;1.60;;
14235;SDS011;7202;50.718;7.072;2023-04-15T04:28:01;4.40;;;1.85;;
14235;SDS011;7202;50.718;7.072;2023-04-15T04:30:30;3.08;;;2.05;;
14235;SDS011;7202;50.718;7.072;2023-04-15T04:33:00;3.38;;;1.67;;
14235;SDS011;7202;50.718;7.072;2023-04-15T04:35:29;2.97;;;1.85;;
14235;SDS011;7202;50.718;7.072;2023-04-15T04:38:00;2.25;;;1.52;;
14235;SDS011;7202;50.718;7.072;2023-04-15T04:40:29;3.92;;;1.90;;
14235;SDS011;7202;50.718;7.072;2023-04-15T04:42:58;3.65;;;1.75;;
14235;SDS011;7202;50.718;7.072;2023-04-15T04:45:27;7.05;;;2.20;;
14235;SDS011;7202;50.718;7.072;2023-04-15T04:47:56;3.85;;;2.17;;
14235;SDS011;7202;50.718;7.072;2023-04-15T04:50:26;2.75;;;1.70;;
14235;SDS011;7202;50.718;7.072;2023-04-15T04:52:54;2.35;;;1.70;;
14235;SDS011;7202;50.718;7.072;2023-04-15T04:55:23;4.40;;;2.13;;
14235;SDS011;7202;50.718;7.072;2023-04-15T04:57:51;3.40;;;1.85;;
14235;SDS011;7202;50.718;7.072;2023-04-15T05:00:20;3.90;;;2.03;;
14235;SDS011;7202;50.718;7.072;2023-04-15T05:02:48;5.70;;;2.45;;
14235;SDS011;7202;50.718;7.072;2023-04-15T05:05:17;6.35;;;2.50;;
14235;SDS011;7202;50.718;7.072;2023-04-15T05:07:47;3.53;;;2.00;;
14235;SDS011;7202;50.718;7.072;2023-04-15T05:10:16;3.60;;;1.95;;
14235;SDS011;7202;50.718;7.072;2023-04-15T05:12:45;3.75;;;2.05;;
14235;SDS011;7202;50.718;7.072;2023-04-15T05:15:13;4.55;;;2.47;;
14235;SDS011;7202;50.718;7.072;2023-04-15T05:17:42;2.92;;;2.15;;
14235;SDS011;7202;50.718;7.072;2023-04-15T05:20:11;4.35;;;2.25;;
14235;SDS011;7202;50.718;7.072;2023-04-15T05:22:40;5.10;;;2.20;;
14235;SDS011;7202;50.718;7.072;2023-04-15T05:25:10;3.80;;;2.42;;
14235;SDS011;7202;50.718;7.072;2023-04-15T05:27:40;3.55;;;2.10;;
14235;SDS011;7202;50.718;7.072;2023-04-15T05:30:08;3.15;;;2.10;;
14235;SDS011;7202;50.718;7.072;2023-04-15T05:32:39;4.22;;;2.33;;
14235;SDS011;7202;50.718;7.072;2023-04-15T05:35:08;5.25;;;2.28;;
14235;SDS011;7202;50.718;7.072;2023-04-15T05:37:37;4.47;;;2.20;;
14235;SDS011;7202;50.718;7.072;2023-04-15T05:40:06;3.85;;;2.47;;
14235;SDS011;7202;50.718;7.072;2023-04-15T05:42:37;4.80;;;2.17;;
14235;SDS011;7202;50.718;7.072;2023-04-15T05:45:06;6.85;;;2.60;;
14235;SDS011;7202;50.718;7.072;2023-04-15T05:47:35;6.35;;;2.92;;
14235;SDS011;7202;50.718;7.072;2023-04-15T05:50:04;7.72;;;2.80;;
14235;SDS011;7202;50.718;7.072;2023-04-15T05:52:34;5.65;;;3.00;;
14235;SDS011;7202;50.718;7.072;2023-04-15T05:55:03;3.60;;;2.47;;
14235;SDS011;7202;50.718;7.072;2023-04-15T05:57:32;5.18;;;2.30;;
14235;SDS011;7202;50.718;7.072;2023-04-15T06:00:02;4.88;;;2.22;;
14235;SDS011;7202;50.718;7.072;2023-04-15T06:02:35;5.00;;;2.42;;
14235;SDS011;7202;50.718;7.072;2023-04-15T06:05:04;5.25;;;2.40;;
14235;SDS011;7202;50.718;7.072;2023-04-15T06:07:36;3.60;;;2.58;;
14235;SDS011;7202;50.718;7.072;2023-04-15T06:10:05;5.38;;;2.50;;
14235;SDS011;7202;50.718;7.072;2023-04-15T06:12:35;4.20;;;2.63;;
14235;SDS011;7202;50.718;7.072;2023-04-15T06:15:05;4.93;;;2.40;;
14235;SDS011;7202;50.718;7.072;2023-04-15T06:17:36;4.28;;;2.65;;
14235;SDS011;7202;50.718;7.072;2023-04-15T06:20:05;3.88;;;2.45;;
14235;SDS011;7202;50.718;7.072;2023-04-15T06:22:35;4.20;;;2.53;;
14235;SDS011;7202;50.718;7.072;2023-04-15T06:25:05;7.05;;;2.75;;
14235;SDS011;7202;50.718;7.072;2023-04-15T06:27:35;5.82;;;2.33;;
14235;SDS011;7202;50.718;7.072;2023-04-15T06:30:06;7.88;;;2.50;;
14235;SDS011;7202;50.718;7.072;2023-04-15T06:32:35;4.63;;;2.95;;
14235;SDS011;7202;50.718;7.072;2023-04-15T06:35:04;3.85;;;2.80;;
14235;SDS011;7202;50.718;7.072;2023-04-15T06:37:32;8.98;;;3.60;;
14235;SDS011;7202;50.718;7.072;2023-04-15T06:40:01;6.35;;;3.25;;
14235;SDS011;7202;50.718;7.072;2023-04-15T06:42:31;3.40;;;2.75;;
14235;SDS011;7202;50.718;7.072;2023-04-15T06:45:00;4.00;;;2.97;;
14235;SDS011;7202;50.718;7.072;2023-04-15T06:47:30;5.57;;;3.33;;
14235;SDS011;7202;50.718;7.072;2023-04-15T06:49:58;8.95;;;3.58;;
14235;SDS011;7202;50.718;7.072;2023-04-15T06:52:27;7.95;;;3.60;;
14235;SDS011;7202;50.718;7.072;2023-04-15T06:54:56;7.07;;;3.72;;
14235;SDS011;7202;50.718;7.072;2023-04-15T06:57:25;9.90;;;4.22;;
14235;SDS011;7202;50.718;7.072;2023-04-15T06:59:54;8.07;;;3.95;;
14235;SDS011;7202;50.718;7.072;2023-04-15T07:02:23;6.68;;;3.78;;
14235;SDS011;7202;50.718;7.072;2023-04-15T07:04:53;6.20;;;4.10;;
14235;SDS011;7202;50.718;7.072;2023-04-15T07:07:22;9.38;;;4.57;;
14235;SDS011;7202;50.718;7.072;2023-04-15T07:09:51;7.32;;;4.40;;
14235;SDS011;7202;50.718;7.072;2023-04-15T07:12:20;6.35;;;4.43;;
14235;SDS011;7202;50.718;7.072;2023-04-15T07:14:49;8.15;;;4.35;;
14235;SDS011;7202;50.718;7.072;2023-04-15T07:17:17;5.90;;;3.95;;
14235;SDS011;7202;50.718;7.072;2023-04-15T07:19:46;6.03;;;3.90;;
14235;SDS011;7202;50.718;7.072;2023-04-15T07:22:16;11.23;;;4.18;;
14235;SDS011;7202;50.718;7.072;2023-04-15T07:24:45;6.70;;;4.47;;
14235;SDS011;7202;50.718;7.072;2023-04-15T07:27:13;7.22;;;4.43;;
14235;SDS011;7202;50.718;7.072;2023-04-15T07:29:43;6.25;;;4.50;;
14235;SDS011;7202;50.718;7.072;2023-04-15T07:32:12;7.18;;;4.45;;
14235;SDS011;7202;50.718;7.072;2023-04-15T07:34:40;6.63;;;4.38;;
14235;SDS011;7202;50.718;7.072;2023-04-15T07:37:09;7.43;;;4.47;;
14235;SDS011;7202;50.718;7.072;2023-04-15T07:39:39;7.55;;;4.85;;
14235;SDS011;7202;50.718;7.072;2023-04-15T07:42:08;8.32;;;4.88;;
14235;SDS011;7202;50.718;7.072;2023-04-15T07:44:37;10.43;;;5.00;;
14235;SDS011;7202;50.718;7.072;2023-04-15T07:47:06;7.95;;;4.97;;
14235;SDS011;7202;50.718;7.072;2023-04-15T07:49:34;6.97;;;5.20;;
14235;SDS011;7202;50.718;7.072;2023-04-15T07:52:03;6.80;;;5.20;;
14235;SDS011;7202;50.718;7.072;2023-04-15T07:54:32;7.85;;;4.82;;
14235;SDS011;7202;50.718;7.072;2023-04-15T07:57:02;7.30;;;5.47;;
14235;SDS011;7202;50.718;7.072;2023-04-15T07:59:31;8.35;;;5.38;;
14235;SDS011;7202;50.718;7.072;2023-04-15T08:02:00;7.43;;;5.38;;
14235;SDS011;7202;50.718;7.072;2023-04-15T08:04:29;11.35;;;5.60;;
14235;SDS011;7202;50.718;7.072;2023-04-15T08:06:58;9.60;;;5.75;;
14235;SDS011;7202;50.718;7.072;2023-04-15T08:09:27;7.82;;;5.43;;
14235;SDS011;7202;50.718;7.072;2023-04-15T08:11:56;9.80;;;5.68;;
14235;SDS011;7202;50.718;7.072;2023-04-15T08:14:26;6.63;;;5.72;;
14235;SDS011;7202;50.718;7.072;2023-04-15T08:16:54;11.93;;;5.80;;
14235;SDS011;7202;50.718;7.072;2023-04-15T08:19:23;9.48;;;5.88;;
14235;SDS011;7202;50.718;7.072;2023-04-15T08:21:52;7.65;;;5.65;;
14235;SDS011;7202;50.718;7.072;2023-04-15T08:24:20;9.13;;;6.43;;
14235;SDS011;7202;50.718;7.072;2023-04-15T08:26:49;42.67;;;7.82;;
14235;SDS011;7202;50.718;7.072;2023-04-15T08:29:18;46.03;;;7.72;;
14235;SDS011;7202;50.718;7.072;2023-04-15T08:31:48;9.35;;;6.10;;
14235;SDS011;7202;50.718;7.072;2023-04-15T08:34:17;9.10;;;5.82;;
14235;SDS011;7202;50.718;7.072;2023-04-15T08:36:46;9.35;;;6.47;;
14235;SDS011;7202;50.718;7.072;2023-04-15T08:39:15;8.10;;;5.72;;
14235;SDS011;7202;50.718;7.072;2023-04-15T08:41:44;8.02;;;5.72;;
14235;SDS011;7202;50.718;7.072;2023-04-15T08:44:14;9.38;;;6.70;;
14235;SDS011;7202;50.718;7.072;2023-04-15T08:46:44;10.30;;;6.40;;
14235;SDS011;7202;50.718;7.072;2023-04-15T08:49:15;8.00;;;6.75;;
14235;SDS011;7202;50.718;7.072;2023-04-15T08:51:46;12.40;;;6.80;;
14235;SDS011;7202;50.718;7.072;2023-04-15T08:54:15;8.13;;;6.32;;
14235;SDS011;7202;50.718;7.072;2023-04-15T08:56:45;9.07;;;6.50;;
14235;SDS011;7202;50.718;7.072;2023-04-15T08:59:14;10.68;;;6.38;;
14235;SDS011;7202;50.718;7.072;2023-04-15T09:01:44;18.85;;;6.70;;
14235;SDS011;7202;50.718;7.072;2023-04-15T09:04:14;8.75;;;6.32;;
14235;SDS011;7202;50.718;7.072;2023-04-15T09:06:44;8.35;;;5.88;;
14235;SDS011;7202;50.718;7.072;2023-04-15T09:09:13;7.50;;;6.50;;
14235;SDS011;7202;50.718;7.072;2023-04-15T09:11:42;8.40;;;6.20;;
14235;SDS011;7202;50.718;7.072;2023-04-15T09:14:11;7.82;;;6.00;;
14235;SDS011;7202;50.718;7.072;2023-04-15T09:19:28;8.50;;;5.90;;
14235;SDS011;7202;50.718;7.072;2023-04-15T09:21:59;8.70;;;5.28;;
14235;SDS011;7202;50.718;7.072;2023-04-15T09:24:34;10.48;;;6.70;;
14235;SDS011;7202;50.718;7.072;2023-04-15T09:27:05;10.02;;;5.95;;
14235;SDS011;7202;50.718;7.072;2023-04-15T09:29:34;6.57;;;5.25;;
14235;SDS011;7202;50.718;7.072;2023-04-15T09:32:10;4.00;;;2.58;;
14235;SDS011;7202;50.718;7.072;2023-04-15T09:34:42;2.70;;;2.13;;
14235;SDS011;7202;50.718;7.072;2023-04-15T09:37:12;4.20;;;1.60;;
14235;SDS011;7202;50.718;7.072;2023-04-15T09:39:58;3.60;;;1.38;;
14235;SDS011;7202;50.718;7.072;2023-04-15T09:42:27;3.40;;;1.58;;
14235;SDS011;7202;50.718;7.072;2023-04-15T09:44:56;2.85;;;1.83;;
14235;SDS011;7202;50.718;7.072;2023-04-15T09:47:35;3.38;;;1.55;;
14235;SDS011;7202;50.718;7.072;2023-04-15T09:50:06;5.25;;;1.50;;
14235;SDS011;7202;50.718;7.072;2023-04-15T09:52:39;2.17;;;1.40;;
14235;SDS011;7202;50.718;7.072;2023-04-15T09:55:10;2.83;;;1.60;;
14235;SDS011;7202;50.718;7.072;2023-04-15T09:57:39;2.13;;;1.60;;
14235;SDS011;7202;50.718;7.072;2023-04-15T10:00:10;2.85;;;1.95;;
14235;SDS011;7202;50.718;7.072;2023-04-15T10:02:40;1.83;;;1.58;;
14235;SDS011;7202;50.718;7.072;2023-04-15T10:05:12;2.05;;;1.45;;
14235;SDS011;7202;50.718;7.072;2023-04-15T10:07:43;1.95;;;1.60;;
14235;SDS011;7202;50.718;7.072;2023-04-15T10:10:12;2.78;;;2.20;;
14235;SDS011;7202;50.718;7.072;2023-04-15T10:12:42;2.75;;;1.70;;
14235;SDS011;7202;50.718;7.072;2023-04-15T10:15:14;2.22;;;1.50;;
14235;SDS011;7202;50.718;7.072;2023-04-15T10:17:44;2.42;;;1.80;;
14235;SDS011;7202;50.718;7.072;2023-04-15T10:20:16;1.88;;;1.25;;
14235;SDS011;7202;50.718;7.072;2023-04-15T10:22:48;3.15;;;1.50;;
14235;SDS011;7202;50.718;7.072;2023-04-15T10:25:18;2.05;;;1.58;;
14235;SDS011;7202;50.718;7.072;2023-04-15T10:27:48;2.33;;;1.65;;
14235;SDS011;7202;50.718;7.072;2023-04-15T10:30:18;3.13;;;1.70;;
14235;SDS011;7202;50.718;7.072;2023-04-15T10:32:48;1.80;;;1.70;;
14235;SDS011;7202;50.718;7.072;2023-04-15T10:35:18;2.80;;;1.70;;
14235;SDS011;7202;50.718;7.072;2023-04-15T10:37:48;2.10;;;1.70;;
14235;SDS011;7202;50.718;7.072;2023-04-15T10:40:24;2.00;;;1.70;;
14235;SDS011;7202;50.718;7.072;2023-04-15T10:42:54;1.95;;;1.67;;
14235;SDS011;7202;50.718;7.072;2023-04-15T10:45:24;1.92;;;1.73;;
14235;SDS011;7202;50.718;7.072;2023-04-15T10:47:55;2.47;;;2.00;;
14235;SDS011;7202;50.718;7.072;2023-04-15T10:50:26;3.03;;;1.80;;
14235;SDS011;7202;50.718;7.072;2023-04-15T10:52:56;2.22;;;1.73;;
14235;SDS011;7202;50.718;7.072;2023-04-15T10:55:25;2.28;;;1.52;;
14235;SDS011;7202;50.718;7.072;2023-04-15T10:57:55;1.92;;;1.70;;
14235;SDS011;7202;50.718;7.072;2023-04-15T11:00:27;3.20;;;1.85;;
14235;SDS011;7202;50.718;7.072;2023-04-15T11:02:58;2.97;;;1.50;;
14235;SDS011;7202;50.718;7.072;2023-04-15T11:05:49;3.45;;;2.03;;
14235;SDS011;7202;50.718;7.072;2023-04-15T11:08:19;3.17;;;2.40;;
14235;SDS011;7202;50.718;7.072;2023-04-15T11:11:09;3.30;;;2.35;;
14235;SDS011;7202;50.718;7.072;2023-04-15T11:13:46;3.65;;;2.80;;
14235;SDS011;7202;50.718;7.072;2023-04-15T11:16:15;4.15;;;3.08;;
14235;SDS011;7202;50.718;7.072;2023-04-15T11:18:52;3.40;;;2.88;;
14235;SDS011;7202;50.718;7.072;2023-04-15T11:21:23;3.45;;;3.00;;
14235;SDS011;7202;50.718;7.072;2023-04-15T11:23:54;3.20;;;2.90;;
14235;SDS011;7202;50.718;7.072;2023-04-15T11:26:25;4.10;;;3.20;;
14235;SDS011;7202;50.718;7.072;2023-04-15T11:28:54;4.35;;;3.30;;
14235;SDS011;7202;50.718;7.072;2023-04-15T11:31:25;5.07;;;3.00;;
14235;SDS011;7202;50.718;7.072;2023-04-15T11:33:56;3.22;;;2.92;;
14235;SDS011;7202;50.718;7.072;2023-04-15T11:36:26;2.72;;;2.53;;
14235;SDS011;7202;50.718;7.072;2023-04-15T11:38:56;3.30;;;3.00;;
14235;SDS011;7202;50.718;7.072;2023-04-15T11:41:27;2.92;;;2.63;;
14235;SDS011;7202;50.718;7.072;2023-04-15T11:43:56;3.67;;;3.35;;
14235;SDS011;7202;50.718;7.072;2023-04-15T11:46:27;2.40;;;2.20;;
14235;SDS011;7202;50.718;7.072;2023-04-15T11:48:57;3.88;;;2.80;;
14235;SDS011;7202;50.718;7.072;2023-04-15T11:51:26;3.53;;;3.05;;
14235;SDS011;7202;50.718;7.072;2023-04-15T11:53:59;3.30;;;2.97;;
14235;SDS011;7202;50.718;7.072;2023-04-15T11:56:30;2.92;;;2.63;;
14235;SDS011;7202;50.718;7.072;2023-04-15T11:58:58;4.40;;;2.55;;
14235;SDS011;7202;50.718;7.072;2023-04-15T12:01:30;4.38;;;2.75;;
14235;SDS011;7202;50.718;7.072;2023-04-15T12:03:59;4.97;;;2.58;;
14235;SDS011;7202;50.718;7.072;2023-04-15T12:06:31;3.50;;;3.20;;
14235;SDS011;7202;50.718;7.072;2023-04-15T12:09:03;3.03;;;2.72;;
14235;SDS011;7202;50.718;7.072;2023-04-15T12:11:37;3.35;;;2.80;;
14235;SDS011;7202;50.718;7.072;2023-04-15T12:14:09;3.55;;;3.05;;
14235;SDS011;7202;50.718;7.072;2023-04-15T12:16:47;3.47;;;3.15;;
14235;SDS011;7202;50.718;7.072;2023-04-15T12:19:21;4.40;;;3.10;;
14235;SDS011;7202;50.718;7.072;2023-04-15T12:21:53;3.42;;;3.00;;
14235;SDS011;7202;50.718;7.072;2023-04-15T12:24:27;3.65;;;2.83;;
14235;SDS011;7202;50.718;7.072;2023-04-15T12:27:02;2.70;;;2.50;;
14235;SDS011;7202;50.718;7.072;2023-04-15T12:29:31;4.15;;;2.40;;
14235;SDS011;7202;50.718;7.072;2023-04-15T12:32:03;2.50;;;2.30;;
14235;SDS011;7202;50.718;7.072;2023-04-15T12:34:34;3.88;;;2.13;;
14235;SDS011;7202;50.718;7.072;2023-04-15T12:37:03;2.45;;;2.25;;
14235;SDS011;7202;50.718;7.072;2023-04-15T12:39:34;3.20;;;2.47;;
14235;SDS011;7202;50.718;7.072;2023-04-15T12:42:05;2.72;;;2.45;;
14235;SDS011;7202;50.718;7.072;2023-04-15T12:44:34;2.80;;;2.60;;
14235;SDS011;7202;50.718;7.072;2023-04-15T12:47:03;3.25;;;2.60;;
14235;SDS011;7202;50.718;7.072;2023-04-15T12:49:32;2.75;;;2.55;;
14235;SDS011;7202;50.718;7.072;2023-04-15T12:52:01;3.60;;;2.65;;
14235;SDS011;7202;50.718;7.072;2023-04-15T12:54:30;3.00;;;2.67;;
14235;SDS011;7202;50.718;7.072;2023-04-15T12:57:00;2.88;;;2.50;;
14235;SDS011;7202;50.718;7.072;2023-04-15T12:59:34;3.97;;;2.90;;
14235;SDS011;7202;50.718;7.072;2023-04-15T13:02:03;3.95;;;3.10;;
14235;SDS011;7202;50.718;7.072;2023-04-15T13:04:32;4.53;;;3.72;;
14235;SDS011;7202;50.718;7.072;2023-04-15T13:07:01;5.18;;;4.10;;
14235;SDS011;7202;50.718;7.072;2023-04-15T13:09:30;4.43;;;4.03;;
14235;SDS011;7202;50.718;7.072;2023-04-15T13:11:59;4.93;;;4.53;;
14235;SDS011;7202;50.718;7.072;2023-04-15T13:14:27;4.95;;;4.45;;
14235;SDS011;7202;50.718;7.072;2023-04-15T13:16:57;5.80;;;5.10;;
14235;SDS011;7202;50.718;7.072;2023-04-15T13:19:26;6.03;;;4.80;;
14235;SDS011;7202;50.718;7.072;2023-04-15T13:21:55;6.18;;;4.47;;
14235;SDS011;7202;50.718;7.072;2023-04-15T13:24:23;6.93;;;4.28;;
14235;SDS011;7202;50.718;7.072;2023-04-15T13:26:53;5.00;;;4.50;;
14235;SDS011;7202;50.718;7.072;2023-04-15T13:29:23;4.97;;;4.40;;
14235;SDS011;7202;50.718;7.072;2023-04-15T13:31:51;4.60;;;4.20;;
14235;SDS011;7202;50.718;7.072;2023-04-15T13:34:22;4.32;;;3.92;;
14235;SDS011;7202;50.718;7.072;2023-04-15T13:36:50;4.10;;;3.70;;
14235;SDS011;7202;50.718;7.072;2023-04-15T13:39:19;5.00;;;4.53;;
14235;SDS011;7202;50.718;7.072;2023-04-15T13:41:47;4.10;;;3.70;;
14235;SDS011;7202;50.718;7.072;2023-04-15T13:44:16;5.22;;;4.40;;
14235;SDS011;7202;50.718;7.072;2023-04-15T13:46:48;4.82;;;4.43;;
14235;SDS011;7202;50.718;7.072;2023-04-15T13:49:16;4.90;;;4.05;;
14235;SDS011;7202;50.718;7.072;2023-04-15T13:51:46;5.20;;;4.35;;
14235;SDS011;7202;50.718;7.072;2023-04-15T13:54:15;4.35;;;3.95;;
14235;SDS011;7202;50.718;7.072;2023-04-15T13:56:44;5.07;;;4.57;;
14235;SDS011;7202;50.718;7.072;2023-04-15T13:59:12;6.32;;;5.72;;
14235;SDS011;7202;50.718;7.072;2023-04-15T14:01:41;5.45;;;4.93;;
14235;SDS011;7202;50.718;7.072;2023-04-15T14:04:11;5.53;;;5.03;;
14235;SDS011;7202;50.718;7.072;2023-04-15T14:06:40;6.40;;;5.78;;
14235;SDS011;7202;50.718;7.072;2023-04-15T14:09:10;9.82;;;6.28;;
14235;SDS011;7202;50.718;7.072;2023-04-15T14:11:40;6.53;;;5.93;;
14235;SDS011;7202;50.718;7.072;2023-04-15T14:14:08;7.47;;;6.78;;
14235;SDS011;7202;50.718;7.072;2023-04-15T14:16:37;8.05;;;7.25;;
14235;SDS011;7202;50.718;7.072;2023-04-15T14:19:06;8.48;;;7.60;;
14235;SDS011;7202;50.718;7.072;2023-04-15T14:21:35;7.80;;;7.05;;
14235;SDS011;7202;50.718;7.072;2023-04-15T14:24:04;9.10;;;8.20;;
14235;SDS011;7202;50.718;7.072;2023-04-15T14:26:34;9.07;;;7.80;;
14235;SDS011;7202;50.718;7.072;2023-04-15T14:29:03;7.60;;;6.80;;
14235;SDS011;7202;50.718;7.072;2023-04-15T14:31:32;7.85;;;7.07;;
14235;SDS011;7202;50.718;7.072;2023-04-15T14:34:00;7.93;;;7.13;;
14235;SDS011;7202;50.718;7.072;2023-04-15T14:36:30;7.72;;;6.55;;
14235;SDS011;7202;50.718;7.072;2023-04-15T14:38:59;7.10;;;6.40;;
14235;SDS011;7202;50.718;7.072;2023-04-15T14:41:28;5.60;;;5.03;;
14235;SDS011;7202;50.718;7.072;2023-04-15T14:43:58;5.40;;;4.90;;
14235;SDS011;7202;50.718;7.072;2023-04-15T14:46:26;6.95;;;5.00;;
14235;SDS011;7202;50.718;7.072;2023-04-15T14:48:55;6.03;;;4.88;;
14235;SDS011;7202;50.718;7.072;2023-04-15T14:51:24;6.60;;;4.75;;
14235;SDS011;7202;50.718;7.072;2023-04-15T14:53:53;6.03;;;5.10;;
14235;SDS011;7202;50.718;7.072;2023-04-15T14:56:21;5.25;;;4.75;;
14235;SDS011;7202;50.718;7.072;2023-04-15T14:58:50;5.82;;;5.20;;
14235;SDS011;7202;50.718;7.072;2023-04-15T15:01:21;6.60;;;5.90;;
14235;SDS011;7202;50.718;7.072;2023-04-15T15:03:50;6.85;;;6.13;;
14235;SDS011;7202;50.718;7.072;2023-04-15T15:06:19;6.90;;;6.20;;
14235;SDS011;7202;50.718;7.072;2023-04-15T15:08:48;5.50;;;4.50;;
14235;SDS011;7202;50.718;7.072;2023-04-15T15:11:17;5.53;;;4.70;;
14235;SDS011;7202;50.718;7.072;2023-04-15T15:13:45;7.43;;;4.38;;
14235;SDS011;7202;50.718;7.072;2023-04-15T15:16:14;6.68;;;5.80;;
14235;SDS011;7202;50.718;7.072;2023-04-15T15:18:44;7.40;;;6.63;;